Time;durP1;ratioP1;P1;durP2;ratioP2;P2;SDS_P1;SDS_P2;PMS_P1;PMS_P2;Temp;Humidity;BMP_temperature;BMP_pressure;BME280_temperature;BME280_humidity;BME280_pressure;Samples;Min_cycle;Max_cycle;Signal;HPM_P1;HPM_P2
2023/06/03 00:01:17;;;;;;;5.78;2.28;;;;;;;;;;7367107;19;20010;-77
2023/06/03 00:03:44;;;;;;;9.80;2.63;;;;;;;;;;7365976;19;20050;-75
2023/06/03 00:06:09;;;;;;;6.13;2.40;;;;;;;;;;7368931;19;20006;-75
2023/06/03 00:08:35;;;;;;;6.40;2.15;;;;;;;;;;7369240;19;20006;-76
2023/06/03 00:11:00;;;;;;;8.93;2.75;;;;;;;;;;7369429;19;19995;-77
2023/06/03 00:13:25;;;;;;;7.30;2.47;;;;;;;;;;7390435;19;20007;-77
2023/06/03 00:15:51;;;;;;;8.40;2.50;;;;;;;;;;7368111;19;20010;-77
2023/06/03 00:18:16;;;;;;;5.45;2.63;;;;;;;;;;7366160;19;20123;-77
2023/06/03 00:20:47;;;;;;;9.13;2.60;;;;;;;;;;7369245;19;20006;-76
2023/06/03 00:23:12;;;;;;;10.40;2.88;;;;;;;;;;7377438;19;20002;-77
2023/06/03 00:25:38;;;;;;;8.02;2.72;;;;;;;;;;7399217;19;20014;-77
2023/06/03 00:28:03;;;;;;;7.95;2.88;;;;;;;;;;7377068;19;20010;-77
2023/06/03 00:30:28;;;;;;;4.85;2.50;;;;;;;;;;7374935;19;20014;-77
2023/06/03 00:32:54;;;;;;;7.65;2.60;;;;;;;;;;7369757;19;20010;-76
2023/06/03 00:35:19;;;;;;;8.23;2.63;;;;;;;;;;7369870;19;20010;-76
2023/06/03 00:37:45;;;;;;;6.82;2.40;;;;;;;;;;7393336;19;20081;-76
2023/06/03 00:40:11;;;;;;;7.35;2.75;;;;;;;;;;7381136;19;20365;-77
2023/06/03 00:42:36;;;;;;;7.63;2.92;;;;;;;;;;7372304;19;20010;-75
2023/06/03 00:45:01;;;;;;;5.82;2.47;;;;;;;;;;7367569;19;20014;-75
2023/06/03 00:47:28;;;;;;;6.60;2.47;;;;;;;;;;7368945;19;20007;-76
2023/06/03 00:49:53;;;;;;;11.43;3.35;;;;;;;;;;7389855;19;20011;-75
2023/06/03 00:52:21;;;;;;;7.35;2.67;;;;;;;;;;7369297;19;20014;-75
2023/06/03 00:54:49;;;;;;;6.80;2.58;;;;;;;;;;7368322;19;20010;-76
2023/06/03 00:57:15;;;;;;;7.25;2.80;;;;;;;;;;7367406;19;20007;-76
2023/06/03 00:59:42;;;;;;;8.85;2.70;;;;;;;;;;7367509;19;20037;-76
2023/06/03 01:02:07;;;;;;;9.85;2.67;;;;;;;;;;7368044;19;20074;-76
2023/06/03 01:04:33;;;;;;;7.22;2.60;;;;;;;;;;7388089;19;20006;-75
2023/06/03 01:07:20;;;;;;;5.32;2.55;;;;;;;;;;7366069;19;20010;-76
2023/06/03 01:10:10;;;;;;;6.43;2.63;;;;;;;;;;7366865;19;20007;-75
2023/06/03 01:12:46;;;;;;;8.10;2.63;;;;;;;;;;7367790;19;20014;-75
2023/06/03 01:15:20;;;;;;;7.75;3.13;;;;;;;;;;7368232;19;20018;-76
2023/06/03 01:17:47;;;;;;;5.47;2.60;;;;;;;;;;7366463;19;20014;-77
2023/06/03 01:20:14;;;;;;;5.63;2.90;;;;;;;;;;7367435;19;20455;-76
2023/06/03 01:22:41;;;;;;;7.15;2.63;;;;;;;;;;7388662;19;20572;-75
2023/06/03 01:25:09;;;;;;;8.50;2.70;;;;;;;;;;7365431;19;20015;-75
2023/06/03 01:27:38;;;;;;;8.07;2.80;;;;;;;;;;7364657;19;20124;-75
2023/06/03 01:30:12;;;;;;;6.32;2.58;;;;;;;;;;7364893;19;20047;-75
2023/06/03 01:32:39;;;;;;;11.07;3.10;;;;;;;;;;7364881;19;20037;-75
2023/06/03 01:35:06;;;;;;;9.68;2.95;;;;;;;;;;7365500;19;20010;-75
2023/06/03 01:37:32;;;;;;;8.85;3.10;;;;;;;;;;7387449;19;20013;-75
2023/06/03 01:40:00;;;;;;;7.40;3.00;;;;;;;;;;7365060;19;20007;-77
2023/06/03 01:42:26;;;;;;;10.27;3.17;;;;;;;;;;7366218;19;20002;-75
2023/06/03 01:44:52;;;;;;;6.10;2.30;;;;;;;;;;7364884;19;20014;-76
2023/06/03 01:47:18;;;;;;;8.55;2.97;;;;;;;;;;7365629;19;20095;-76
2023/06/03 01:49:44;;;;;;;8.75;3.03;;;;;;;;;;7386806;19;20414;-76
2023/06/03 01:52:10;;;;;;;10.57;3.30;;;;;;;;;;7366163;19;20082;-76
2023/06/03 01:54:35;;;;;;;5.95;2.75;;;;;;;;;;7369976;19;20040;-76
2023/06/03 01:57:02;;;;;;;8.65;3.15;;;;;;;;;;7371229;19;20006;-76
2023/06/03 01:59:27;;;;;;;8.23;3.45;;;;;;;;;;7372596;19;20010;-76
2023/06/03 02:01:55;;;;;;;10.75;2.85;;;;;;;;;;7394838;19;20015;-76
2023/06/03 02:04:21;;;;;;;6.70;2.72;;;;;;;;;;7370921;19;20026;-76
2023/06/03 02:06:59;;;;;;;7.78;3.00;;;;;;;;;;7380329;19;20021;-76
2023/06/03 02:09:27;;;;;;;6.90;3.03;;;;;;;;;;7383222;19;20540;-76
2023/06/03 02:11:52;;;;;;;6.82;2.65;;;;;;;;;;7379453;19;20387;-76
2023/06/03 02:14:18;;;;;;;7.93;3.17;;;;;;;;;;7374133;19;20000;-76
2023/06/03 02:16:43;;;;;;;9.45;2.92;;;;;;;;;;7395025;19;20426;-76
2023/06/03 02:19:17;;;;;;;6.28;2.75;;;;;;;;;;7373197;19;20027;-76
2023/06/03 02:21:44;;;;;;;7.18;3.08;;;;;;;;;;7375205;19;20035;-76
2023/06/03 02:24:09;;;;;;;9.02;3.22;;;;;;;;;;7375873;19;20006;-76
2023/06/03 02:26:35;;;;;;;9.00;3.00;;;;;;;;;;7375465;19;20014;-76
2023/06/03 02:29:02;;;;;;;10.10;3.50;;;;;;;;;;7375785;19;20010;-76
2023/06/03 02:31:28;;;;;;;6.35;3.20;;;;;;;;;;7396885;19;20013;-76
2023/06/03 02:33:53;;;;;;;9.00;2.80;;;;;;;;;;7374769;19;20006;-76
2023/06/03 02:36:19;;;;;;;8.07;3.33;;;;;;;;;;7374000;19;20027;-76
2023/06/03 02:38:47;;;;;;;7.30;3.17;;;;;;;;;;7373503;19;20024;-77
2023/06/03 02:41:12;;;;;;;6.13;3.00;;;;;;;;;;7371642;19;20014;-76
2023/06/03 02:43:38;;;;;;;7.70;2.65;;;;;;;;;;7392131;19;20398;-76
2023/06/03 02:46:03;;;;;;;6.90;2.85;;;;;;;;;;7373196;19;20010;-77
2023/06/03 02:48:28;;;;;;;10.07;3.15;;;;;;;;;;7373798;19;20024;-76
2023/06/03 02:50:53;;;;;;;9.75;3.13;;;;;;;;;;7374666;19;20002;-75
2023/06/03 02:53:19;;;;;;;6.80;3.22;;;;;;;;;;7377267;19;20018;-76
2023/06/03 02:55:45;;;;;;;7.60;3.30;;;;;;;;;;7399569;19;19999;-77
2023/06/03 02:58:12;;;;;;;9.07;3.15;;;;;;;;;;7373155;19;20527;-77
2023/06/03 03:00:39;;;;;;;7.10;3.30;;;;;;;;;;7375221;19;20365;-77
2023/06/03 03:03:04;;;;;;;11.50;2.92;;;;;;;;;;7374413;19;20010;-76
2023/06/03 03:05:30;;;;;;;7.55;3.40;;;;;;;;;;7373966;19;20024;-76
2023/06/03 03:07:58;;;;;;;6.72;3.40;;;;;;;;;;7394148;19;19998;-76
2023/06/03 03:10:24;;;;;;;8.88;3.22;;;;;;;;;;7376504;19;20007;-76
2023/06/03 03:12:50;;;;;;;6.55;2.80;;;;;;;;;;7376059;19;20006;-76
2023/06/03 03:15:15;;;;;;;8.13;2.72;;;;;;;;;;7375435;19;20006;-76
2023/06/03 03:17:41;;;;;;;9.70;3.10;;;;;;;;;;7373696;19;20013;-76
2023/06/03 03:20:07;;;;;;;9.70;3.13;;;;;;;;;;7378092;19;20014;-76
2023/06/03 03:22:33;;;;;;;7.82;3.13;;;;;;;;;;7401914;19;20010;-76
2023/06/03 03:24:59;;;;;;;6.65;3.42;;;;;;;;;;7381127;19;20020;-76
2023/06/03 03:27:25;;;;;;;10.35;3.30;;;;;;;;;;7379715;19;20010;-76
2023/06/03 03:29:52;;;;;;;16.13;3.17;;;;;;;;;;7375273;19;20014;-76
2023/06/03 03:32:19;;;;;;;10.48;3.22;;;;;;;;;;7375278;19;20061;-76
2023/06/03 03:34:49;;;;;;;7.15;3.10;;;;;;;;;;7397051;19;20002;-75
2023/06/03 03:37:14;;;;;;;7.35;3.13;;;;;;;;;;7369597;19;20014;-76
2023/06/03 03:39:40;;;;;;;7.28;3.05;;;;;;;;;;7369612;19;20010;-76
2023/06/03 03:42:08;;;;;;;6.38;2.90;;;;;;;;;;7370668;19;20579;-75
2023/06/03 03:44:33;;;;;;;8.45;3.05;;;;;;;;;;7369041;19;20006;-75
2023/06/03 03:47:01;;;;;;;13.07;3.20;;;;;;;;;;7370204;19;20392;-75
2023/06/03 03:49:30;;;;;;;10.00;3.13;;;;;;;;;;7397183;19;20044;-76
2023/06/03 03:51:56;;;;;;;8.68;3.20;;;;;;;;;;7382126;19;20006;-76
2023/06/03 03:54:23;;;;;;;6.68;2.92;;;;;;;;;;7375619;19;20015;-76
2023/06/03 03:56:54;;;;;;;9.43;3.35;;;;;;;;;;7368055;19;20688;-76
2023/06/03 03:59:19;;;;;;;;;;;;;;;;;;7370582;19;20014;-75
2023/06/03 04:01:44;;;;;;;6.87;2.70;;;;;;;;;;7390443;19;19918;-75
2023/06/03 04:04:10;;;;;;;7.88;3.08;;;;;;;;;;7368154;19;20018;-76
2023/06/03 04:06:38;;;;;;;8.48;2.80;;;;;;;;;;7368300;19;20010;-76
2023/06/03 04:09:07;;;;;;;6.20;2.42;;;;;;;;;;7367877;19;20596;-76
2023/06/03 04:11:42;;;;;;;9.00;3.05;;;;;;;;;;7363113;19;20022;-75
2023/06/03 04:14:10;;;;;;;7.57;2.90;;;;;;;;;;7368971;19;20027;-76
2023/06/03 04:16:38;;;;;;;10.95;2.88;;;;;;;;;;7388543;19;20015;-76
2023/06/03 04:19:06;;;;;;;7.57;3.10;;;;;;;;;;7366263;19;20038;-76
2023/06/03 04:21:37;;;;;;;5.93;2.55;;;;;;;;;;7369605;19;20011;-76
2023/06/03 04:24:04;;;;;;;9.52;2.88;;;;;;;;;;7369226;19;20569;-76
2023/06/03 04:26:30;;;;;;;8.35;2.70;;;;;;;;;;7367764;19;20018;-76
2023/06/03 04:28:55;;;;;;;6.25;2.80;;;;;;;;;;7389821;19;20003;-76
2023/06/03 04:31:21;;;;;;;5.43;2.67;;;;;;;;;;7369440;19;20561;-76
2023/06/03 04:33:46;;;;;;;5.35;2.70;;;;;;;;;;7379602;19;20036;-76
2023/06/03 04:36:11;;;;;;;6.72;2.80;;;;;;;;;;7381304;19;20018;-76
2023/06/03 04:38:37;;;;;;;6.78;2.92;;;;;;;;;;7372319;19;20010;-75
2023/06/03 04:41:02;;;;;;;5.30;2.50;;;;;;;;;;7368932;19;20014;-75
2023/06/03 04:43:27;;;;;;;8.27;2.70;;;;;;;;;;7389186;19;20006;-75
2023/06/03 04:45:54;;;;;;;6.65;2.50;;;;;;;;;;7366974;19;20562;-75
2023/06/03 04:48:22;;;;;;;5.88;2.30;;;;;;;;;;7366851;19;20006;-75
2023/06/03 04:50:49;;;;;;;11.65;2.65;;;;;;;;;;7368338;19;20104;-75
2023/06/03 04:53:14;;;;;;;7.10;2.80;;;;;;;;;;7368219;19;20031;-75
2023/06/03 04:55:44;;;;;;;5.25;2.30;;;;;;;;;;7390882;19;20014;-77
2023/06/03 04:58:10;;;;;;;6.30;2.85;;;;;;;;;;7366963;19;20062;-75
2023/06/03 05:00:36;;;;;;;6.60;1.98;;;;;;;;;;7370324;19;20015;-75
2023/06/03 05:03:08;;;;;;;6.50;3.25;;;;;;;;;;7378162;19;20369;-75
2023/06/03 05:05:34;;;;;;;6.72;2.33;;;;;;;;;;7375801;19;20013;-76
2023/06/03 05:07:59;;;;;;;9.15;2.45;;;;;;;;;;7376226;19;20028;-75
2023/06/03 05:10:25;;;;;;;5.45;2.20;;;;;;;;;;7400183;19;20389;-76
2023/06/03 05:12:50;;;;;;;9.38;2.50;;;;;;;;;;7379986;19;20017;-76
2023/06/03 05:15:16;;;;;;;5.82;2.22;;;;;;;;;;7381908;19;20007;-76
2023/06/03 05:17:41;;;;;;;4.70;1.92;;;;;;;;;;7380016;19;20390;-76
2023/06/03 05:20:09;;;;;;;5.47;2.35;;;;;;;;;;7379648;19;20006;-75
2023/06/03 05:22:34;;;;;;;6.07;2.50;;;;;;;;;;7401693;19;20106;-76
2023/06/03 05:25:00;;;;;;;6.40;2.53;;;;;;;;;;7384022;19;20014;-76
2023/06/03 05:27:26;;;;;;;5.03;2.40;;;;;;;;;;7383165;19;20274;-76
2023/06/03 05:29:51;;;;;;;7.38;2.50;;;;;;;;;;7391111;19;20066;-76
2023/06/03 05:32:16;;;;;;;7.43;2.25;;;;;;;;;;7389488;19;20076;-76
2023/06/03 05:34:42;;;;;;;5.20;2.05;;;;;;;;;;7409908;19;20002;-76
2023/06/03 05:37:07;;;;;;;6.35;2.28;;;;;;;;;;7386370;19;20006;-76
2023/06/03 05:39:32;;;;;;;7.13;2.20;;;;;;;;;;7382534;19;20014;-76
2023/06/03 05:41:58;;;;;;;5.00;1.88;;;;;;;;;;7382805;19;20014;-76
2023/06/03 05:44:23;;;;;;;6.03;2.00;;;;;;;;;;7381379;19;20006;-76
2023/06/03 05:46:48;;;;;;;5.28;2.20;;;;;;;;;;7405720;19;20010;-76
2023/06/03 05:49:14;;;;;;;8.23;2.38;;;;;;;;;;7383952;19;20006;-76
2023/06/03 05:51:39;;;;;;;4.13;1.98;;;;;;;;;;7377115;19;20015;-77
2023/06/03 05:54:04;;;;;;;6.70;2.60;;;;;;;;;;7382641;19;20013;-77
2023/06/03 05:56:30;;;;;;;4.38;1.83;;;;;;;;;;7394159;19;20007;-77
2023/06/03 05:58:57;;;;;;;3.55;1.90;;;;;;;;;;7407679;19;20007;-75
2023/06/03 06:01:23;;;;;;;4.15;2.13;;;;;;;;;;7377099;19;20011;-76
2023/06/03 06:03:48;;;;;;;4.75;2.28;;;;;;;;;;7378975;19;20035;-77
2023/06/03 06:06:13;;;;;;;3.58;1.83;;;;;;;;;;7381823;19;20007;-76
2023/06/03 06:08:39;;;;;;;4.82;1.67;;;;;;;;;;7386394;19;20007;-76
2023/06/03 06:11:04;;;;;;;5.13;1.85;;;;;;;;;;7388975;19;20007;-76
2023/06/03 06:13:30;;;;;;;6.07;2.08;;;;;;;;;;7401158;19;20007;-75
2023/06/03 06:16:00;;;;;;;4.07;1.98;;;;;;;;;;7379736;19;20562;-76
2023/06/03 06:18:26;;;;;;;4.70;2.00;;;;;;;;;;7382730;19;20416;-76
2023/06/03 06:20:51;;;;;;;4.50;2.40;;;;;;;;;;7381046;19;20010;-76
2023/06/03 06:23:16;;;;;;;4.10;1.80;;;;;;;;;;7380015;19;20587;-77
2023/06/03 06:25:53;;;;;;;5.68;2.00;;;;;;;;;;7403216;19;20006;-76
2023/06/03 06:28:24;;;;;;;5.07;1.77;;;;;;;;;;7376483;19;20014;-76
2023/06/03 06:30:54;;;;;;;7.70;2.10;;;;;;;;;;7377877;19;20010;-76
2023/06/03 06:33:19;;;;;;;6.70;1.98;;;;;;;;;;7378287;19;20017;-76
2023/06/03 06:35:45;;;;;;;4.95;1.63;;;;;;;;;;7377989;19;20015;-76
2023/06/03 06:38:11;;;;;;;4.30;1.85;;;;;;;;;;7378908;19;20010;-75
2023/06/03 06:40:40;;;;;;;6.97;2.00;;;;;;;;;;7402363;19;20002;-76
2023/06/03 06:43:12;;;;;;;7.60;2.08;;;;;;;;;;7383087;19;20014;-76
2023/06/03 06:45:38;;;;;;;5.20;2.10;;;;;;;;;;7380116;19;20499;-76
2023/06/03 06:48:10;;;;;;;3.88;1.80;;;;;;;;;;7378594;19;20062;-76
2023/06/03 06:50:53;;;;;;;2.08;1.33;;;;;;;;;;7379466;19;20010;-76
2023/06/03 06:53:19;;;;;;;7.10;1.92;;;;;;;;;;7371335;19;20024;-75
2023/06/03 06:55:50;;;;;;;7.82;2.13;;;;;;;;;;7395750;19;20010;-76
2023/06/03 06:58:16;;;;;;;4.60;1.92;;;;;;;;;;7370251;19;20392;-75
2023/06/03 07:00:42;;;;;;;5.97;2.03;;;;;;;;;;7371689;19;20054;-76
2023/06/03 07:03:08;;;;;;;4.00;1.77;;;;;;;;;;7372525;19;20488;-74
2023/06/03 07:05:34;;;;;;;2.47;1.63;;;;;;;;;;7372714;19;20452;-77
2023/06/03 07:07:59;;;;;;;4.70;1.92;;;;;;;;;;7368961;19;20023;-76
2023/06/03 07:10:24;;;;;;;4.95;1.95;;;;;;;;;;7394189;19;20006;-76
2023/06/03 07:12:52;;;;;;;4.60;2.00;;;;;;;;;;7372100;19;20010;-75
2023/06/03 07:15:18;;;;;;;5.10;1.95;;;;;;;;;;7372574;19;20587;-77
2023/06/03 07:17:51;;;;;;;3.92;2.00;;;;;;;;;;7370809;19;20094;-76
2023/06/03 07:20:31;;;;;;;8.23;2.17;;;;;;;;;;7371600;19;20399;-75
2023/06/03 07:22:56;;;;;;;3.78;1.75;;;;;;;;;;7393183;19;20010;-76
2023/06/03 07:25:35;;;;;;;2.65;1.50;;;;;;;;;;7377063;19;20043;-76
2023/06/03 07:28:08;;;;;;;5.25;1.90;;;;;;;;;;7379384;19;20017;-76
2023/06/03 07:30:35;;;;;;;7.60;1.80;;;;;;;;;;7381655;19;20007;-76
2023/06/03 07:33:02;;;;;;;3.90;1.77;;;;;;;;;;7377074;19;20022;-76
2023/06/03 07:35:27;;;;;;;5.70;2.13;;;;;;;;;;7372319;19;20407;-75
2023/06/03 07:37:53;;;;;;;6.22;2.03;;;;;;;;;;7392596;19;20062;-75
2023/06/03 07:40:18;;;;;;;4.35;2.20;;;;;;;;;;7370679;19;20018;-76
2023/06/03 07:42:47;;;;;;;5.70;2.03;;;;;;;;;;7368999;19;20077;-75
2023/06/03 07:45:13;;;;;;;3.72;1.92;;;;;;;;;;7370740;19;20490;-76
2023/06/03 07:47:39;;;;;;;3.17;1.90;;;;;;;;;;7370539;19;20018;-75
2023/06/03 07:50:20;;;;;;;5.03;1.98;;;;;;;;;;7369821;19;19995;-76
2023/06/03 07:52:45;;;;;;;9.45;1.90;;;;;;;;;;7391984;19;20006;-76
2023/06/03 07:55:11;;;;;;;4.10;2.08;;;;;;;;;;7370118;19;20046;-76
2023/06/03 07:57:46;;;;;;;3.53;1.90;;;;;;;;;;7365165;19;20017;-75
2023/06/03 08:00:15;;;;;;;4.88;2.10;;;;;;;;;;7373427;19;20014;-76
2023/06/03 08:02:40;;;;;;;6.55;1.90;;;;;;;;;;7379222;19;20034;-75
2023/06/03 08:05:06;;;;;;;4.50;1.80;;;;;;;;;;7377005;19;20402;-75
2023/06/03 08:07:32;;;;;;;8.52;2.50;;;;;;;;;;7388826;19;20017;-75
2023/06/03 08:09:58;;;;;;;4.80;2.08;;;;;;;;;;7369101;19;20014;-75
2023/06/03 08:12:33;;;;;;;5.18;2.15;;;;;;;;;;7370312;19;20014;-75
2023/06/03 08:15:00;;;;;;;5.30;1.80;;;;;;;;;;7368994;19;20049;-75
2023/06/03 08:17:39;;;;;;;5.28;1.83;;;;;;;;;;7368141;19;20030;-75
2023/06/03 08:20:08;;;;;;;5.00;2.17;;;;;;;;;;7369594;19;20005;-75
2023/06/03 08:22:43;;;;;;;4.88;2.15;;;;;;;;;;7392242;19;20025;-75
2023/06/03 08:25:09;;;;;;;4.53;1.90;;;;;;;;;;7369572;19;20492;-75
2023/06/03 08:27:36;;;;;;;5.00;1.95;;;;;;;;;;7368034;19;20013;-74
2023/06/03 08:30:05;;;;;;;5.72;2.22;;;;;;;;;;7368489;19;20014;-75
2023/06/03 08:32:34;;;;;;;8.88;2.42;;;;;;;;;;7370222;19;20011;-75
2023/06/03 08:35:00;;;;;;;5.38;2.10;;;;;;;;;;7369339;19;20006;-74
2023/06/03 08:37:26;;;;;;;5.47;1.90;;;;;;;;;;7389935;19;20002;-75
2023/06/03 08:39:52;;;;;;;2.78;1.80;;;;;;;;;;7368479;19;20006;-75
2023/06/03 08:42:23;;;;;;;3.15;1.90;;;;;;;;;;7369844;19;20469;-74
2023/06/03 08:45:02;;;;;;;4.32;1.98;;;;;;;;;;7368793;19;20013;-74
2023/06/03 08:47:36;;;;;;;4.38;2.10;;;;;;;;;;7362251;19;20185;-74
2023/06/03 08:50:07;;;;;;;8.77;2.50;;;;;;;;;;7367655;19;20006;-74
2023/06/03 08:52:37;;;;;;;;;;;;;;;;;;7388283;19;20027;-74
2023/06/03 08:55:04;;;;;;;7.33;2.20;;;;;;;;;;7362386;19;19915;-74
2023/06/03 08:57:34;;;;;;;6.15;2.30;;;;;;;;;;7364607;19;20046;-74
2023/06/03 09:00:01;;;;;;;6.77;2.20;;;;;;;;;;7367114;19;20002;-74
2023/06/03 09:02:28;;;;;;;3.97;2.20;;;;;;;;;;7368853;19;20672;-76
2023/06/03 09:04:55;;;;;;;5.78;2.67;;;;;;;;;;7400416;19;20043;-75
2023/06/03 09:07:22;;;;;;;6.35;2.67;;;;;;;;;;7380343;19;20020;-76
2023/06/03 09:09:50;;;;;;;6.75;2.22;;;;;;;;;;7380391;19;20015;-76
2023/06/03 09:12:15;;;;;;;4.25;2.25;;;;;;;;;;7382236;19;20020;-75
2023/06/03 09:14:43;;;;;;;4.47;2.20;;;;;;;;;;7380800;19;20010;-76
2023/06/03 09:17:09;;;;;;;5.95;2.65;;;;;;;;;;7379660;19;20010;-76
2023/06/03 09:19:35;;;;;;;6.68;2.60;;;;;;;;;;7402516;19;20013;-75
2023/06/03 09:22:01;;;;;;;4.88;2.55;;;;;;;;;;7384936;19;20047;-74
2023/06/03 09:24:27;;;;;;;7.95;2.40;;;;;;;;;;7382328;19;20023;-75
2023/06/03 09:26:52;;;;;;;4.13;2.20;;;;;;;;;;7380113;19;20531;-75
2023/06/03 09:29:18;;;;;;;4.50;2.25;;;;;;;;;;7381973;19;20008;-74
2023/06/03 09:31:43;;;;;;;8.30;2.40;;;;;;;;;;7404177;19;20090;-74
2023/06/03 09:34:09;;;;;;;6.57;2.42;;;;;;;;;;7378720;19;20010;-75
2023/06/03 09:36:48;;;;;;;7.53;2.45;;;;;;;;;;7378234;19;20014;-75
2023/06/03 09:39:17;;;;;;;4.82;2.28;;;;;;;;;;7379058;19;20081;-74
2023/06/03 09:41:43;;;;;;;4.78;2.35;;;;;;;;;;7378824;19;20863;-74
2023/06/03 09:44:10;;;;;;;7.25;2.65;;;;;;;;;;7380680;19;20011;-73
2023/06/03 09:46:36;;;;;;;9.52;2.50;;;;;;;;;;7402748;19;20017;-74
2023/06/03 09:49:08;;;;;;;5.00;2.47;;;;;;;;;;7378061;19;20011;-74
2023/06/03 09:51:41;;;;;;;4.55;2.10;;;;;;;;;;7379397;19;20031;-73
2023/06/03 09:54:24;;;;;;;4.72;2.10;;;;;;;;;;7378095;19;20002;-75
2023/06/03 09:56:51;;;;;;;6.03;2.80;;;;;;;;;;7378877;19;20025;-75
2023/06/03 09:59:25;;;;;;;5.90;2.45;;;;;;;;;;7376653;19;20570;-74
2023/06/03 10:01:54;;;;;;;4.95;2.53;;;;;;;;;;7396943;19;20010;-74
2023/06/03 10:04:22;;;;;;;7.57;2.80;;;;;;;;;;7378549;19;20019;-74
2023/06/03 10:07:06;;;;;;;5.93;2.25;;;;;;;;;;7379737;19;20069;-74
2023/06/03 10:09:32;;;;;;;5.05;2.75;;;;;;;;;;7378818;19;20575;-75
2023/06/03 10:11:57;;;;;;;5.85;2.33;;;;;;;;;;7377829;19;20060;-75
2023/06/03 10:14:25;;;;;;;5.75;2.70;;;;;;;;;;7379990;19;20015;-75
2023/06/03 10:17:10;;;;;;;5.30;2.65;;;;;;;;;;7393866;19;20075;-73
2023/06/03 10:19:40;;;;;;;8.95;2.75;;;;;;;;;;7372828;19;20010;-74
2023/06/03 10:22:07;;;;;;;;;;;;;;;;;;7373271;19;20021;-74
2023/06/03 10:24:43;;;;;;;8.98;2.63;;;;;;;;;;7368869;19;20460;-75
2023/06/03 10:27:10;;;;;;;6.97;2.45;;;;;;;;;;7372629;19;20367;-74
2023/06/03 10:29:36;;;;;;;5.72;2.60;;;;;;;;;;7370569;19;20086;-74
2023/06/03 10:32:05;;;;;;;9.75;2.40;;;;;;;;;;7371182;19;20023;-74
2023/06/03 10:34:34;;;;;;;6.90;2.70;;;;;;;;;;7395183;19;20017;-74
2023/06/03 10:37:01;;;;;;;6.68;3.40;;;;;;;;;;7371409;19;20021;-74
2023/06/03 10:39:29;;;;;;;7.55;2.80;;;;;;;;;;7372895;19;20015;-74
2023/06/03 10:42:00;;;;;;;5.78;2.95;;;;;;;;;;7371653;19;20027;-74
2023/06/03 10:44:26;;;;;;;6.90;2.67;;;;;;;;;;7376205;19;20073;-74
2023/06/03 10:47:02;;;;;;;5.38;2.60;;;;;;;;;;7403670;19;20021;-74
2023/06/03 10:49:33;;;;;;;8.73;2.83;;;;;;;;;;7379886;19;20011;-73
2023/06/03 10:52:27;;;;;;;7.72;2.97;;;;;;;;;;7374994;19;20349;-73
2023/06/03 10:55:08;;;;;;;8.73;2.78;;;;;;;;;;7372222;19;20438;-74
2023/06/03 10:57:40;;;;;;;4.93;2.70;;;;;;;;;;7370056;19;20032;-73
2023/06/03 11:00:10;;;;;;;7.38;3.05;;;;;;;;;;7372071;19;20006;-74
2023/06/03 11:03:06;;;;;;;6.25;3.00;;;;;;;;;;7371927;19;20022;-74
2023/06/03 11:05:32;;;;;;;4.38;2.60;;;;;;;;;;7371459;19;20019;-74
2023/06/03 11:07:58;;;;;;;9.02;2.90;;;;;;;;;;7387047;19;20031;-74
2023/06/03 11:10:36;;;;;;;8.50;2.80;;;;;;;;;;7382528;19;20011;-73
2023/06/03 11:13:01;;;;;;;9.68;3.42;;;;;;;;;;7369850;19;20074;-74
2023/06/03 11:16:02;;;;;;;8.18;3.05;;;;;;;;;;7370704;19;20010;-74
2023/06/03 11:18:28;;;;;;;10.63;3.25;;;;;;;;;;7368291;19;20489;-75
2023/06/03 11:20:54;;;;;;;5.70;2.88;;;;;;;;;;7371140;19;20015;-73
2023/06/03 11:23:39;;;;;;;5.55;3.15;;;;;;;;;;7367304;19;20021;-75
2023/06/03 11:26:30;;;;;;;6.18;3.28;;;;;;;;;;7368566;19;20010;-73
2023/06/03 11:28:55;;;;;;;5.28;3.13;;;;;;;;;;7390660;19;20318;-73
2023/06/03 11:31:21;;;;;;;10.48;3.00;;;;;;;;;;7369614;19;20018;-74
2023/06/03 11:34:17;;;;;;;7.50;2.75;;;;;;;;;;7369912;19;20516;-75
2023/06/03 11:36:55;;;;;;;9.48;3.78;;;;;;;;;;7371584;19;20700;-75
2023/06/03 11:39:21;;;;;;;11.60;2.95;;;;;;;;;;7370812;19;20011;-74
2023/06/03 11:42:01;;;;;;;8.15;2.83;;;;;;;;;;7373743;19;20035;-74
2023/06/03 11:44:26;;;;;;;5.63;2.70;;;;;;;;;;7375025;19;20002;-74
2023/06/03 11:46:52;;;;;;;6.68;2.80;;;;;;;;;;7399131;19;20546;-74
2023/06/03 11:49:20;;;;;;;5.57;2.85;;;;;;;;;;7375025;19;20015;-74
2023/06/03 11:51:54;;;;;;;8.98;3.35;;;;;;;;;;7376012;19;20007;-73
2023/06/03 11:54:22;;;;;;;7.78;2.97;;;;;;;;;;7375986;19;20010;-74
2023/06/03 11:56:50;;;;;;;7.80;3.28;;;;;;;;;;7374542;19;20023;-75
2023/06/03 11:59:19;;;;;;;6.65;3.15;;;;;;;;;;7373045;19;20010;-75
2023/06/03 12:02:00;;;;;;;7.18;2.72;;;;;;;;;;7397027;19;20019;-74
2023/06/03 12:04:26;;;;;;;7.40;2.72;;;;;;;;;;7373808;19;20003;-75
2023/06/03 12:06:52;;;;;;;7.63;3.15;;;;;;;;;;7373798;19;20406;-74
2023/06/03 12:09:28;;;;;;;15.30;3.70;;;;;;;;;;7373290;19;20057;-74
2023/06/03 12:11:55;;;;;;;14.25;3.85;;;;;;;;;;7375796;19;20013;-74
2023/06/03 12:14:24;;;;;;;10.13;3.20;;;;;;;;;;7370844;19;20014;-75
2023/06/03 12:16:50;;;;;;;6.25;2.60;;;;;;;;;;7390289;19;20014;-74
2023/06/03 12:19:15;;;;;;;5.97;3.00;;;;;;;;;;7368473;19;20023;-74
2023/06/03 12:21:41;;;;;;;6.10;2.92;;;;;;;;;;7369200;19;20039;-74
2023/06/03 12:24:12;;;;;;;7.80;3.13;;;;;;;;;;7369242;19;20010;-73
2023/06/03 12:26:40;;;;;;;7.00;2.78;;;;;;;;;;7368605;19;20014;-74
2023/06/03 12:29:11;;;;;;;7.80;3.28;;;;;;;;;;7369310;19;20127;-74
2023/06/03 12:31:37;;;;;;;6.47;3.28;;;;;;;;;;7394448;19;20007;-73
2023/06/03 12:34:03;;;;;;;7.70;3.15;;;;;;;;;;7377015;19;20017;-74
2023/06/03 12:36:48;;;;;;;9.35;2.85;;;;;;;;;;7375760;19;20022;-73
2023/06/03 12:39:14;;;;;;;7.38;3.05;;;;;;;;;;7372721;19;20372;-73
2023/06/03 12:41:50;;;;;;;4.80;2.33;;;;;;;;;;7377651;19;20005;-74
2023/06/03 12:44:15;;;;;;;4.63;2.80;;;;;;;;;;7377194;19;20337;-73
2023/06/03 12:46:40;;;;;;;7.70;2.92;;;;;;;;;;7398829;19;20174;-73
2023/06/03 12:49:16;;;;;;;17.25;3.30;;;;;;;;;;7376685;19;20082;-73
2023/06/03 12:51:42;;;;;;;6.03;3.13;;;;;;;;;;7380098;19;20010;-75
2023/06/03 12:54:07;;;;;;;8.15;3.08;;;;;;;;;;7380277;19;20032;-74
2023/06/03 12:56:34;;;;;;;6.05;3.40;;;;;;;;;;7378080;19;20472;-73
2023/06/03 12:59:00;;;;;;;5.70;3.38;;;;;;;;;;7375144;19;20437;-75
2023/06/03 13:01:26;;;;;;;6.05;3.22;;;;;;;;;;7395936;19;20006;-73
2023/06/03 13:03:54;;;;;;;6.10;3.00;;;;;;;;;;7367365;19;20430;-75
2023/06/03 13:06:22;;;;;;;8.40;3.00;;;;;;;;;;7366668;19;20003;-73
2023/06/03 13:08:50;;;;;;;6.32;2.80;;;;;;;;;;7366024;19;20315;-74
2023/06/03 13:11:16;;;;;;;9.38;3.03;;;;;;;;;;7368909;19;20011;-73
2023/06/03 13:13:42;;;;;;;8.68;3.00;;;;;;;;;;7389142;19;20082;-73
2023/06/03 13:16:07;;;;;;;7.78;2.75;;;;;;;;;;7367063;19;20030;-73
2023/06/03 13:18:33;;;;;;;7.10;3.05;;;;;;;;;;7367338;19;20477;-73
2023/06/03 13:20:58;;;;;;;5.95;3.00;;;;;;;;;;7366400;19;20006;-73
2023/06/03 13:23:23;;;;;;;7.43;3.10;;;;;;;;;;7363908;19;20377;-74
2023/06/03 13:25:49;;;;;;;6.50;3.00;;;;;;;;;;7389863;19;20002;-74
2023/06/03 13:28:15;;;;;;;7.18;2.42;;;;;;;;;;7367702;19;19998;-74
2023/06/03 13:30:40;;;;;;;10.63;3.50;;;;;;;;;;7376296;19;20347;-74
2023/06/03 13:33:06;;;;;;;6.88;3.50;;;;;;;;;;7378596;19;20566;-75
2023/06/03 13:35:31;;;;;;;8.20;2.80;;;;;;;;;;7368808;19;20006;-73
2023/06/03 13:37:57;;;;;;;8.40;2.92;;;;;;;;;;7386831;19;20078;-73
2023/06/03 13:40:22;;;;;;;4.90;2.67;;;;;;;;;;7367327;19;20023;-73
2023/06/03 13:42:48;;;;;;;7.00;2.50;;;;;;;;;;7366828;19;20428;-73
2023/06/03 13:45:13;;;;;;;8.95;2.80;;;;;;;;;;7366976;19;20010;-73
2023/06/03 13:47:39;;;;;;;7.18;2.70;;;;;;;;;;7365502;19;20010;-74
2023/06/03 13:50:05;;;;;;;5.75;2.65;;;;;;;;;;7369803;19;20012;-74
2023/06/03 13:52:31;;;;;;;9.15;3.00;;;;;;;;;;7396924;19;19994;-73
2023/06/03 13:54:56;;;;;;;5.75;2.92;;;;;;;;;;7373862;19;20014;-74
2023/06/03 13:57:21;;;;;;;9.70;3.20;;;;;;;;;;7373577;19;20021;-73
2023/06/03 13:59:47;;;;;;;4.55;2.63;;;;;;;;;;7374311;19;20479;-73
2023/06/03 14:02:13;;;;;;;5.63;2.80;;;;;;;;;;7377331;19;20002;-73
2023/06/03 14:04:38;;;;;;;4.97;2.78;;;;;;;;;;7395375;19;20014;-74
2023/06/03 14:07:05;;;;;;;7.53;3.00;;;;;;;;;;7375006;19;20440;-74
2023/06/03 14:09:31;;;;;;;5.60;2.92;;;;;;;;;;7385322;19;20082;-74
2023/06/03 14:11:57;;;;;;;6.32;3.15;;;;;;;;;;7387974;19;20006;-74
2023/06/03 14:14:22;;;;;;;9.50;3.45;;;;;;;;;;7381558;19;20016;-74
2023/06/03 14:16:48;;;;;;;9.27;3.67;;;;;;;;;;7401930;19;20006;-74
2023/06/03 14:19:13;;;;;;;9.30;2.97;;;;;;;;;;7379816;19;20510;-74
2023/06/03 14:21:39;;;;;;;9.18;3.10;;;;;;;;;;7381132;19;20062;-74
2023/06/03 14:24:04;;;;;;;5.43;2.55;;;;;;;;;;7380862;19;20017;-74
2023/06/03 14:26:35;;;;;;;5.50;2.67;;;;;;;;;;7384959;19;20069;-74
2023/06/03 14:29:01;;;;;;;;;;;;;;;;;;7387404;19;19995;-73
2023/06/03 14:31:26;;;;;;;4.88;2.70;;;;;;;;;;7405351;19;19915;-73
2023/06/03 14:33:51;;;;;;;5.88;2.47;;;;;;;;;;7384643;19;20364;-74
2023/06/03 14:36:17;;;;;;;6.32;2.80;;;;;;;;;;7386478;19;20017;-73
2023/06/03 14:38:42;;;;;;;8.63;3.17;;;;;;;;;;7383080;19;20034;-73
2023/06/03 14:41:09;;;;;;;8.65;2.67;;;;;;;;;;7382662;19;20010;-73
2023/06/03 14:43:35;;;;;;;8.30;2.80;;;;;;;;;;7400456;19;20403;-73
2023/06/03 14:46:04;;;;;;;5.97;2.58;;;;;;;;;;7374158;19;20477;-73
2023/06/03 14:48:30;;;;;;;6.97;2.50;;;;;;;;;;7371257;19;20027;-73